M/V Sacred Heart — WDD7662 — position and weather

sailwx.info

Track history (hours):
 
Tides and Currents Weather Stations Pressure Air Temp Water Temp Dewpoint Dewpoint Depression Visibility Wind Speed Wind Dir Waves Ship Positions

M/V Sacred Heart

Owner: Marquette Transportation Company Gulf-Inland, LLC, Jefferson, LA. More information available from US FCC via Universal Licensing System.

Last reported at 2017-Dec-17 09:30 UTC. Time now 2017-Dec-17 09:52 UTC.
Position N 30°02' W 093°15'.

Length 21 m; draft 3 m.

Type: . MMSI: 367189510.

Date/timePositionNaut miles runAvg speedWind from/ knotsBaromVisibWave heightAir tempDewpointWater temp
2017-Dec-17 09:30N 30°02' W 093°15'2 4.0
2017-Dec-17 09:01N 29°60' W 093°13'1 1.4
2017-Dec-17 08:31N 29°59' W 093°13'0 0.0
2017-Dec-17 08:01N 29°59' W 093°13'0 0.0
2017-Dec-17 07:31N 29°59' W 093°13'0 0.1
2017-Dec-17 07:01N 29°59' W 093°13'1 1.2
2017-Dec-17 06:30N 29°59' W 093°12'2 4.2
2017-Dec-17 05:59N 29°57' W 093°11'43 3.1
2017-Dec-16 15:57N 29°51' W 092°22'1 2.9
2017-Dec-16 15:28N 29°51' W 092°20'2 3.9
2017-Dec-16 15:00N 29°50' W 092°18'2 4.0
2017-Dec-16 14:31N 29°49' W 092°16'2 4.3
2017-Dec-16 14:01N 29°48' W 092°14'2 4.0
2017-Dec-16 13:31N 29°47' W 092°12'1 2.6
2017-Dec-16 13:01N 29°47' W 092°11'1 0.9
2017-Dec-16 12:27N 29°47' W 092°10'2 4.4
2017-Dec-16 12:01N 29°47' W 092°08'2 4.1
2017-Dec-16 11:27N 29°48' W 092°05'2 4.4
2017-Dec-16 10:58N 29°49' W 092°03'65 4.0
2017-Dec-15 18:47N 29°32' W 090°51'1 4.9
2017-Dec-15 18:30N 29°32' W 090°50'2 4.5
2017-Dec-15 18:01N 29°32' W 090°47'2 3.7
2017-Dec-15 17:31N 29°33' W 090°45'2 3.8
2017-Dec-15 17:01N 29°34' W 090°43'2 4.1
2017-Dec-15 16:31N 29°36' W 090°43'1 2.6
2017-Dec-15 16:01N 29°37' W 090°41'1 2.4
2017-Dec-15 15:31N 29°36' W 090°40'0 0.1
2017-Dec-15 15:01N 29°36' W 090°40'0 0.5
2017-Dec-15 14:31N 29°36' W 090°40'0 0.5
2017-Dec-15 14:01N 29°36' W 090°40'0 0.0
2017-Dec-15 13:31N 29°36' W 090°40'0 0.0
2017-Dec-15 13:01N 29°36' W 090°40'0 0.0
2017-Dec-15 12:31N 29°36' W 090°40'0 0.0
2017-Dec-15 12:01N 29°36' W 090°40'0 0.0
2017-Dec-15 11:30N 29°36' W 090°40'0 0.0
2017-Dec-15 11:01N 29°36' W 090°40'0 0.0
2017-Dec-15 10:30N 29°36' W 090°40'0 0.0
2017-Dec-15 10:01N 29°36' W 090°40'2 3.9
2017-Dec-15 09:31N 29°35' W 090°38'2 3.9
2017-Dec-15 09:00N 29°35' W 090°36'2 3.8
2017-Dec-15 08:30N 29°34' W 090°34'6 4.1
2017-Dec-15 06:55N 29°33' W 090°26'2 3.9
2017-Dec-15 06:30N 29°33' W 090°24'4 2.2
2017-Dec-15 04:27N 29°37' W 090°21'  
2017-Dec-12 18:07N 29°34' W 090°32'1 4.7
2017-Dec-12 17:56N 29°34' W 090°33'2 4.6
2017-Dec-12 17:29N 29°35' W 090°35'2 4.6
2017-Dec-12 17:00N 29°35' W 090°38'2 4.6
2017-Dec-12 16:30N 29°36' W 090°40'2 4.1
2017-Dec-12 16:01N 29°37' W 090°42'2 3.5
2017-Dec-12 15:31N 29°35' W 090°43'2 3.3
2017-Dec-12 15:01N 29°34' W 090°44'1 2.5
2017-Dec-12 14:31N 29°33' W 090°45'1 2.1
2017-Dec-12 14:01N 29°32' W 090°46'3 5.9
2017-Dec-12 13:31N 29°32' W 090°49'60 1.3
2017-Dec-10 15:43N 29°51' W 091°55'3 3.1
2017-Dec-10 14:47N 29°54' W 091°55'0 0.0
2017-Dec-10 14:29N 29°54' W 091°55'0 0.5
2017-Dec-10 14:00N 29°53' W 091°55'0 0.3
2017-Dec-10 13:30N 29°53' W 091°55'0 0.3
2017-Dec-10 12:59N 29°53' W 091°55'0 0.1
2017-Dec-10 12:29N 29°53' W 091°55'0 0.2
2017-Dec-10 11:59N 29°53' W 091°55'1 1.5
2017-Dec-10 11:29N 29°53' W 091°56'1 1.1
2017-Dec-10 10:43N 29°53' W 091°55'0 0.1
2017-Dec-10 10:28N 29°53' W 091°55'0 0.0
2017-Dec-10 09:02N 29°53' W 091°55'0 0.2
2017-Dec-10 08:32N 29°53' W 091°55'0 0.2
2017-Dec-10 08:29N 29°53' W 091°55'0 0.4
2017-Dec-10 07:52N 29°53' W 091°55'1 0.8
2017-Dec-10 06:54N 29°53' W 091°56'0 0.1
2017-Dec-10 06:30N 29°53' W 091°56'0 0.7
2017-Dec-10 06:00N 29°53' W 091°56'2 3.3
2017-Dec-10 05:24N 29°51' W 091°56'60 4.9
2017-Dec-09 17:04N 29°32' W 090°50'0 5.7
2017-Dec-09 17:00N 29°32' W 090°50'3 5.7
2017-Dec-09 16:30N 29°32' W 090°47'2 5.0
2017-Dec-09 16:00N 29°34' W 090°44'2 3.7
2017-Dec-09 15:30N 29°35' W 090°43'2 3.9
2017-Dec-09 15:00N 29°37' W 090°42'1 1.2
2017-Dec-09 14:30N 29°37' W 090°41'2 3.4
2017-Dec-09 14:00N 29°36' W 090°40'3 5.3
2017-Dec-09 13:30N 29°35' W 090°37'3 5.1
2017-Dec-09 12:59N 29°34' W 090°34'  
Track history (hours):
 
Tides and Currents Weather Stations Pressure Air Temp Water Temp Dewpoint Dewpoint Depression Visibility Wind Speed Wind Dir Waves Ship Positions

M/V Sacred Heart

Owner: Marquette Transportation Company Gulf-Inland, LLC, Jefferson, LA. More information available from US FCC via Universal Licensing System.

Last reported at 2017-Dec-17 09:30 UTC. Time now 2017-Dec-17 09:52 UTC.
Position N 30°02' W 093°15'.

Length 21 m; draft 3 m.

Type: . MMSI: 367189510.

Date/timePositionNaut miles runAvg speedWind from/ knotsBaromVisibWave heightAir tempDewpointWater temp
2017-Dec-17 09:30N 30°02' W 093°15'2 4.0
2017-Dec-17 09:01N 29°60' W 093°13'1 1.4
2017-Dec-17 08:31N 29°59' W 093°13'0 0.0
2017-Dec-17 08:01N 29°59' W 093°13'0 0.0
2017-Dec-17 07:31N 29°59' W 093°13'0 0.1
2017-Dec-17 07:01N 29°59' W 093°13'1 1.2
2017-Dec-17 06:30N 29°59' W 093°12'2 4.2
2017-Dec-17 05:59N 29°57' W 093°11'43 3.1
2017-Dec-16 15:57N 29°51' W 092°22'1 2.9
2017-Dec-16 15:28N 29°51' W 092°20'2 3.9
2017-Dec-16 15:00N 29°50' W 092°18'2 4.0
2017-Dec-16 14:31N 29°49' W 092°16'2 4.3
2017-Dec-16 14:01N 29°48' W 092°14'2 4.0
2017-Dec-16 13:31N 29°47' W 092°12'1 2.6
2017-Dec-16 13:01N 29°47' W 092°11'1 0.9
2017-Dec-16 12:27N 29°47' W 092°10'2 4.4
2017-Dec-16 12:01N 29°47' W 092°08'2 4.1
2017-Dec-16 11:27N 29°48' W 092°05'2 4.4
2017-Dec-16 10:58N 29°49' W 092°03'65 4.0
2017-Dec-15 18:47N 29°32' W 090°51'1 4.9
2017-Dec-15 18:30N 29°32' W 090°50'2 4.5
2017-Dec-15 18:01N 29°32' W 090°47'2 3.7
2017-Dec-15 17:31N 29°33' W 090°45'2 3.8
2017-Dec-15 17:01N 29°34' W 090°43'2 4.1
2017-Dec-15 16:31N 29°36' W 090°43'1 2.6
2017-Dec-15 16:01N 29°37' W 090°41'1 2.4
2017-Dec-15 15:31N 29°36' W 090°40'0 0.1
2017-Dec-15 15:01N 29°36' W 090°40'0 0.5
2017-Dec-15 14:31N 29°36' W 090°40'0 0.5
2017-Dec-15 14:01N 29°36' W 090°40'0 0.0
2017-Dec-15 13:31N 29°36' W 090°40'0 0.0
2017-Dec-15 13:01N 29°36' W 090°40'0 0.0
2017-Dec-15 12:31N 29°36' W 090°40'0 0.0
2017-Dec-15 12:01N 29°36' W 090°40'0 0.0
2017-Dec-15 11:30N 29°36' W 090°40'0 0.0
2017-Dec-15 11:01N 29°36' W 090°40'0 0.0
2017-Dec-15 10:30N 29°36' W 090°40'0 0.0
2017-Dec-15 10:01N 29°36' W 090°40'2 3.9
2017-Dec-15 09:31N 29°35' W 090°38'2 3.9
2017-Dec-15 09:00N 29°35' W 090°36'2 3.8
2017-Dec-15 08:30N 29°34' W 090°34'6 4.1
2017-Dec-15 06:55N 29°33' W 090°26'2 3.9
2017-Dec-15 06:30N 29°33' W 090°24'4 2.2
2017-Dec-15 04:27N 29°37' W 090°21'  
2017-Dec-12 18:07N 29°34' W 090°32'1 4.7
2017-Dec-12 17:56N 29°34' W 090°33'2 4.6
2017-Dec-12 17:29N 29°35' W 090°35'2 4.6
2017-Dec-12 17:00N 29°35' W 090°38'2 4.6
2017-Dec-12 16:30N 29°36' W 090°40'2 4.1
2017-Dec-12 16:01N 29°37' W 090°42'2 3.5
2017-Dec-12 15:31N 29°35' W 090°43'2 3.3
2017-Dec-12 15:01N 29°34' W 090°44'1 2.5
2017-Dec-12 14:31N 29°33' W 090°45'1 2.1
2017-Dec-12 14:01N 29°32' W 090°46'3 5.9
2017-Dec-12 13:31N 29°32' W 090°49'60 1.3
2017-Dec-10 15:43N 29°51' W 091°55'3 3.1
2017-Dec-10 14:47N 29°54' W 091°55'0 0.0
2017-Dec-10 14:29N 29°54' W 091°55'0 0.5
2017-Dec-10 14:00N 29°53' W 091°55'0 0.3
2017-Dec-10 13:30N 29°53' W 091°55'0 0.3
2017-Dec-10 12:59N 29°53' W 091°55'0 0.1
2017-Dec-10 12:29N 29°53' W 091°55'0 0.2
2017-Dec-10 11:59N 29°53' W 091°55'1 1.5
2017-Dec-10 11:29N 29°53' W 091°56'1 1.1
2017-Dec-10 10:43N 29°53' W 091°55'0 0.1
2017-Dec-10 10:28N 29°53' W 091°55'0 0.0
2017-Dec-10 09:02N 29°53' W 091°55'0 0.2
2017-Dec-10 08:32N 29°53' W 091°55'0 0.2
2017-Dec-10 08:29N 29°53' W 091°55'0 0.4
2017-Dec-10 07:52N 29°53' W 091°55'1 0.8
2017-Dec-10 06:54N 29°53' W 091°56'0 0.1
2017-Dec-10 06:30N 29°53' W 091°56'0 0.7
2017-Dec-10 06:00N 29°53' W 091°56'2 3.3
2017-Dec-10 05:24N 29°51' W 091°56'60 4.9
2017-Dec-09 17:04N 29°32' W 090°50'0 5.7
2017-Dec-09 17:00N 29°32' W 090°50'3 5.7
2017-Dec-09 16:30N 29°32' W 090°47'2 5.0
2017-Dec-09 16:00N 29°34' W 090°44'2 3.7
2017-Dec-09 15:30N 29°35' W 090°43'2 3.9
2017-Dec-09 15:00N 29°37' W 090°42'1 1.2
2017-Dec-09 14:30N 29°37' W 090°41'2 3.4
2017-Dec-09 14:00N 29°36' W 090°40'3 5.3
2017-Dec-09 13:30N 29°35' W 090°37'3 5.1
2017-Dec-09 12:59N 29°34' W 090°34'  

Dump ship's entire track history